sensor_id;sensor_type;location;lat;lon;timestamp;P1;durP1;ratioP1;P2;durP2;ratioP2
52534;SDS011;38443;53.164;5.802;2023-09-19T00:02:04;4.90;;;2.28;;
52534;SDS011;38443;53.164;5.802;2023-09-19T00:04:31;5.05;;;2.20;;
52534;SDS011;38443;53.164;5.802;2023-09-19T00:06:57;7.05;;;2.30;;
52534;SDS011;38443;53.164;5.802;2023-09-19T00:09:23;9.68;;;2.55;;
52534;SDS011;38443;53.164;5.802;2023-09-19T00:11:51;6.93;;;2.80;;
52534;SDS011;38443;53.164;5.802;2023-09-19T00:14:16;3.80;;;2.20;;
52534;SDS011;38443;53.164;5.802;2023-09-19T00:16:42;8.18;;;1.95;;
52534;SDS011;38443;53.164;5.802;2023-09-19T00:19:07;8.18;;;2.22;;
52534;SDS011;38443;53.164;5.802;2023-09-19T00:21:33;6.38;;;2.00;;
52534;SDS011;38443;53.164;5.802;2023-09-19T00:23:59;7.00;;;2.20;;
52534;SDS011;38443;53.164;5.802;2023-09-19T00:26:24;3.90;;;2.50;;
52534;SDS011;38443;53.164;5.802;2023-09-19T00:28:52;6.18;;;1.77;;
52534;SDS011;38443;53.164;5.802;2023-09-19T00:31:17;5.15;;;2.20;;
52534;SDS011;38443;53.164;5.802;2023-09-19T00:33:43;5.88;;;2.38;;
52534;SDS011;38443;53.164;5.802;2023-09-19T00:36:08;5.43;;;2.30;;
52534;SDS011;38443;53.164;5.802;2023-09-19T00:38:33;8.13;;;2.60;;
52534;SDS011;38443;53.164;5.802;2023-09-19T00:40:59;4.65;;;1.88;;
52534;SDS011;38443;53.164;5.802;2023-09-19T00:43:24;9.80;;;3.40;;
52534;SDS011;38443;53.164;5.802;2023-09-19T00:45:52;10.85;;;3.00;;
52534;SDS011;38443;53.164;5.802;2023-09-19T00:48:20;5.88;;;2.42;;
52534;SDS011;38443;53.164;5.802;2023-09-19T00:50:47;8.88;;;2.17;;
52534;SDS011;38443;53.164;5.802;2023-09-19T00:53:14;7.72;;;2.10;;
52534;SDS011;38443;53.164;5.802;2023-09-19T00:55:43;4.70;;;1.90;;
52534;SDS011;38443;53.164;5.802;2023-09-19T00:58:10;5.45;;;1.90;;
52534;SDS011;38443;53.164;5.802;2023-09-19T01:00:36;6.10;;;1.80;;
52534;SDS011;38443;53.164;5.802;2023-09-19T01:03:03;5.80;;;2.28;;
52534;SDS011;38443;53.164;5.802;2023-09-19T01:05:29;9.82;;;2.90;;
52534;SDS011;38443;53.164;5.802;2023-09-19T01:07:55;3.50;;;2.28;;
52534;SDS011;38443;53.164;5.802;2023-09-19T01:10:21;6.15;;;2.03;;
52534;SDS011;38443;53.164;5.802;2023-09-19T01:23:24;5.85;;;2.17;;
52534;SDS011;38443;53.164;5.802;2023-09-19T01:26:05;5.90;;;2.03;;
52534;SDS011;38443;53.164;5.802;2023-09-19T01:32:04;5.05;;;1.75;;
52534;SDS011;38443;53.164;5.802;2023-09-19T01:34:50;4.95;;;1.80;;
52534;SDS011;38443;53.164;5.802;2023-09-19T01:37:20;15.85;;;2.33;;
52534;SDS011;38443;53.164;5.802;2023-09-19T01:40:00;4.15;;;1.85;;
52534;SDS011;38443;53.164;5.802;2023-09-19T01:45:03;4.95;;;2.95;;
52534;SDS011;38443;53.164;5.802;2023-09-19T01:47:38;4.55;;;2.10;;
52534;SDS011;38443;53.164;5.802;2023-09-19T01:51:11;5.35;;;2.33;;
52534;SDS011;38443;53.164;5.802;2023-09-19T01:53:30;5.65;;;2.00;;
52534;SDS011;38443;53.164;5.802;2023-09-19T01:56:00;4.35;;;1.95;;
52534;SDS011;38443;53.164;5.802;2023-09-19T01:58:33;3.92;;;1.88;;
52534;SDS011;38443;53.164;5.802;2023-09-19T02:01:02;2.92;;;1.85;;
52534;SDS011;38443;53.164;5.802;2023-09-19T02:03:30;4.68;;;2.08;;
52534;SDS011;38443;53.164;5.802;2023-09-19T02:05:56;5.60;;;1.95;;
52534;SDS011;38443;53.164;5.802;2023-09-19T02:08:22;5.85;;;2.13;;
52534;SDS011;38443;53.164;5.802;2023-09-19T02:10:51;5.72;;;2.45;;
52534;SDS011;38443;53.164;5.802;2023-09-19T02:13:21;3.30;;;1.60;;
52534;SDS011;38443;53.164;5.802;2023-09-19T02:15:53;8.88;;;2.00;;
52534;SDS011;38443;53.164;5.802;2023-09-19T02:18:18;5.25;;;2.15;;
52534;SDS011;38443;53.164;5.802;2023-09-19T02:20:45;4.70;;;1.63;;
52534;SDS011;38443;53.164;5.802;2023-09-19T02:23:11;10.18;;;2.35;;
52534;SDS011;38443;53.164;5.802;2023-09-19T02:25:37;3.70;;;2.17;;
52534;SDS011;38443;53.164;5.802;2023-09-19T02:28:04;5.78;;;2.17;;
52534;SDS011;38443;53.164;5.802;2023-09-19T02:30:30;7.78;;;1.73;;
52534;SDS011;38443;53.164;5.802;2023-09-19T02:32:56;10.75;;;2.03;;
52534;SDS011;38443;53.164;5.802;2023-09-19T02:35:21;5.75;;;2.20;;
52534;SDS011;38443;53.164;5.802;2023-09-19T02:37:47;9.07;;;2.45;;
52534;SDS011;38443;53.164;5.802;2023-09-19T02:40:13;6.25;;;2.10;;
52534;SDS011;38443;53.164;5.802;2023-09-19T02:42:46;6.47;;;2.38;;
52534;SDS011;38443;53.164;5.802;2023-09-19T02:45:17;6.15;;;3.50;;
52534;SDS011;38443;53.164;5.802;2023-09-19T02:47:43;5.65;;;1.85;;
52534;SDS011;38443;53.164;5.802;2023-09-19T02:50:09;4.95;;;2.05;;
52534;SDS011;38443;53.164;5.802;2023-09-19T02:52:41;4.38;;;1.92;;
52534;SDS011;38443;53.164;5.802;2023-09-19T02:55:11;2.90;;;1.60;;
52534;SDS011;38443;53.164;5.802;2023-09-19T02:57:39;6.30;;;2.13;;
52534;SDS011;38443;53.164;5.802;2023-09-19T03:00:08;9.75;;;2.78;;
52534;SDS011;38443;53.164;5.802;2023-09-19T03:02:35;8.13;;;2.17;;
52534;SDS011;38443;53.164;5.802;2023-09-19T03:05:01;10.13;;;2.25;;
52534;SDS011;38443;53.164;5.802;2023-09-19T03:07:28;5.63;;;2.00;;
52534;SDS011;38443;53.164;5.802;2023-09-19T03:09:53;6.47;;;2.92;;
52534;SDS011;38443;53.164;5.802;2023-09-19T03:12:20;6.15;;;2.15;;
52534;SDS011;38443;53.164;5.802;2023-09-19T03:14:45;9.13;;;2.90;;
52534;SDS011;38443;53.164;5.802;2023-09-19T03:17:10;8.82;;;2.03;;
52534;SDS011;38443;53.164;5.802;2023-09-19T03:19:36;6.07;;;1.88;;
52534;SDS011;38443;53.164;5.802;2023-09-19T03:22:04;4.32;;;1.75;;
52534;SDS011;38443;53.164;5.802;2023-09-19T03:24:29;5.68;;;2.22;;
52534;SDS011;38443;53.164;5.802;2023-09-19T03:26:56;8.07;;;1.98;;
52534;SDS011;38443;53.164;5.802;2023-09-19T03:29:22;6.32;;;2.10;;
52534;SDS011;38443;53.164;5.802;2023-09-19T03:31:47;6.32;;;1.88;;
52534;SDS011;38443;53.164;5.802;2023-09-19T03:34:12;6.88;;;2.10;;
52534;SDS011;38443;53.164;5.802;2023-09-19T03:36:38;3.95;;;2.00;;
52534;SDS011;38443;53.164;5.802;2023-09-19T03:39:04;7.53;;;2.58;;
52534;SDS011;38443;53.164;5.802;2023-09-19T03:41:30;8.18;;;2.60;;
52534;SDS011;38443;53.164;5.802;2023-09-19T03:43:56;6.93;;;2.35;;
52534;SDS011;38443;53.164;5.802;2023-09-19T03:46:22;4.78;;;1.85;;
52534;SDS011;38443;53.164;5.802;2023-09-19T03:48:47;4.80;;;2.00;;
52534;SDS011;38443;53.164;5.802;2023-09-19T03:51:12;6.68;;;2.80;;
52534;SDS011;38443;53.164;5.802;2023-09-19T03:53:37;7.95;;;2.35;;
52534;SDS011;38443;53.164;5.802;2023-09-19T03:56:03;10.05;;;2.10;;
52534;SDS011;38443;53.164;5.802;2023-09-19T03:58:28;6.03;;;2.30;;
52534;SDS011;38443;53.164;5.802;2023-09-19T04:00:57;8.05;;;2.42;;
52534;SDS011;38443;53.164;5.802;2023-09-19T04:03:23;7.78;;;2.00;;
52534;SDS011;38443;53.164;5.802;2023-09-19T04:05:49;5.22;;;2.00;;
52534;SDS011;38443;53.164;5.802;2023-09-19T04:08:15;6.72;;;2.45;;
52534;SDS011;38443;53.164;5.802;2023-09-19T04:10:43;6.30;;;2.13;;
52534;SDS011;38443;53.164;5.802;2023-09-19T04:13:10;7.32;;;1.98;;
52534;SDS011;38443;53.164;5.802;2023-09-19T04:15:36;6.55;;;2.22;;
52534;SDS011;38443;53.164;5.802;2023-09-19T04:18:02;7.85;;;1.80;;
52534;SDS011;38443;53.164;5.802;2023-09-19T04:20:28;6.35;;;1.95;;
52534;SDS011;38443;53.164;5.802;2023-09-19T04:22:53;9.02;;;2.55;;
52534;SDS011;38443;53.164;5.802;2023-09-19T04:25:19;5.40;;;2.05;;
52534;SDS011;38443;53.164;5.802;2023-09-19T04:27:45;7.75;;;2.30;;
52534;SDS011;38443;53.164;5.802;2023-09-19T04:30:14;3.25;;;1.88;;
52534;SDS011;38443;53.164;5.802;2023-09-19T04:32:39;6.35;;;2.17;;
52534;SDS011;38443;53.164;5.802;2023-09-19T04:35:09;6.60;;;1.98;;
52534;SDS011;38443;53.164;5.802;2023-09-19T04:37:38;5.85;;;2.35;;
52534;SDS011;38443;53.164;5.802;2023-09-19T04:40:05;4.95;;;1.88;;
52534;SDS011;38443;53.164;5.802;2023-09-19T04:42:35;4.28;;;1.60;;
52534;SDS011;38443;53.164;5.802;2023-09-19T04:45:00;5.88;;;2.95;;
52534;SDS011;38443;53.164;5.802;2023-09-19T04:47:26;6.57;;;2.10;;
52534;SDS011;38443;53.164;5.802;2023-09-19T04:49:51;4.40;;;2.60;;
52534;SDS011;38443;53.164;5.802;2023-09-19T04:52:16;3.58;;;2.28;;
52534;SDS011;38443;53.164;5.802;2023-09-19T04:54:42;2.90;;;1.83;;
52534;SDS011;38443;53.164;5.802;2023-09-19T04:57:07;6.55;;;2.22;;
52534;SDS011;38443;53.164;5.802;2023-09-19T04:59:32;3.20;;;1.67;;
52534;SDS011;38443;53.164;5.802;2023-09-19T05:01:58;6.35;;;2.67;;
52534;SDS011;38443;53.164;5.802;2023-09-19T05:04:24;6.32;;;1.83;;
52534;SDS011;38443;53.164;5.802;2023-09-19T05:06:49;9.20;;;2.45;;
52534;SDS011;38443;53.164;5.802;2023-09-19T05:09:14;8.48;;;3.00;;
52534;SDS011;38443;53.164;5.802;2023-09-19T05:11:40;9.02;;;2.63;;
52534;SDS011;38443;53.164;5.802;2023-09-19T05:14:06;7.13;;;2.15;;
52534;SDS011;38443;53.164;5.802;2023-09-19T05:16:31;5.10;;;1.88;;
52534;SDS011;38443;53.164;5.802;2023-09-19T05:18:57;5.32;;;2.30;;
52534;SDS011;38443;53.164;5.802;2023-09-19T05:21:25;5.93;;;2.20;;
52534;SDS011;38443;53.164;5.802;2023-09-19T05:23:53;5.53;;;1.70;;
52534;SDS011;38443;53.164;5.802;2023-09-19T05:26:19;8.77;;;2.22;;
52534;SDS011;38443;53.164;5.802;2023-09-19T05:28:44;7.22;;;2.53;;
52534;SDS011;38443;53.164;5.802;2023-09-19T05:31:10;6.00;;;1.98;;
52534;SDS011;38443;53.164;5.802;2023-09-19T05:33:35;4.70;;;1.95;;
52534;SDS011;38443;53.164;5.802;2023-09-19T05:36:00;4.22;;;2.25;;
52534;SDS011;38443;53.164;5.802;2023-09-19T05:38:25;5.60;;;1.73;;
52534;SDS011;38443;53.164;5.802;2023-09-19T05:40:52;5.78;;;1.83;;
52534;SDS011;38443;53.164;5.802;2023-09-19T05:43:17;7.53;;;2.40;;
52534;SDS011;38443;53.164;5.802;2023-09-19T05:45:43;5.97;;;1.65;;
52534;SDS011;38443;53.164;5.802;2023-09-19T05:48:11;6.43;;;1.60;;
52534;SDS011;38443;53.164;5.802;2023-09-19T05:50:38;3.67;;;1.90;;
52534;SDS011;38443;53.164;5.802;2023-09-19T05:53:04;10.13;;;2.55;;
52534;SDS011;38443;53.164;5.802;2023-09-19T05:55:30;5.45;;;2.70;;
52534;SDS011;38443;53.164;5.802;2023-09-19T05:57:56;7.38;;;2.15;;
52534;SDS011;38443;53.164;5.802;2023-09-19T06:00:22;7.60;;;2.25;;
52534;SDS011;38443;53.164;5.802;2023-09-19T06:02:52;8.18;;;2.33;;
52534;SDS011;38443;53.164;5.802;2023-09-19T06:05:22;5.70;;;2.25;;
52534;SDS011;38443;53.164;5.802;2023-09-19T06:07:48;6.50;;;1.85;;
52534;SDS011;38443;53.164;5.802;2023-09-19T06:10:15;5.82;;;1.73;;
52534;SDS011;38443;53.164;5.802;2023-09-19T06:12:42;3.28;;;1.73;;
52534;SDS011;38443;53.164;5.802;2023-09-19T06:15:10;7.10;;;1.98;;
52534;SDS011;38443;53.164;5.802;2023-09-19T06:18:14;8.00;;;2.40;;
52534;SDS011;38443;53.164;5.802;2023-09-19T06:20:38;6.68;;;1.90;;
52534;SDS011;38443;53.164;5.802;2023-09-19T06:23:09;7.97;;;1.90;;
52534;SDS011;38443;53.164;5.802;2023-09-19T06:25:35;4.65;;;2.30;;
52534;SDS011;38443;53.164;5.802;2023-09-19T06:28:00;4.20;;;2.38;;
52534;SDS011;38443;53.164;5.802;2023-09-19T06:30:29;4.85;;;2.17;;
52534;SDS011;38443;53.164;5.802;2023-09-19T06:32:59;5.97;;;1.80;;
52534;SDS011;38443;53.164;5.802;2023-09-19T06:35:25;3.33;;;1.90;;
52534;SDS011;38443;53.164;5.802;2023-09-19T06:37:51;7.32;;;1.85;;
52534;SDS011;38443;53.164;5.802;2023-09-19T06:40:17;8.77;;;2.38;;
52534;SDS011;38443;53.164;5.802;2023-09-19T06:42:44;5.18;;;1.48;;
52534;SDS011;38443;53.164;5.802;2023-09-19T06:45:11;4.63;;;1.67;;
52534;SDS011;38443;53.164;5.802;2023-09-19T06:47:38;3.28;;;1.67;;
52534;SDS011;38443;53.164;5.802;2023-09-19T06:50:04;9.85;;;2.67;;
52534;SDS011;38443;53.164;5.802;2023-09-19T06:52:31;4.97;;;2.20;;
52534;SDS011;38443;53.164;5.802;2023-09-19T06:54:58;6.07;;;2.13;;
52534;SDS011;38443;53.164;5.802;2023-09-19T06:57:23;6.70;;;1.98;;
52534;SDS011;38443;53.164;5.802;2023-09-19T06:59:49;4.78;;;2.15;;
52534;SDS011;38443;53.164;5.802;2023-09-19T07:02:15;4.97;;;2.33;;
52534;SDS011;38443;53.164;5.802;2023-09-19T07:04:40;10.25;;;2.85;;
52534;SDS011;38443;53.164;5.802;2023-09-19T07:07:05;5.88;;;2.00;;
52534;SDS011;38443;53.164;5.802;2023-09-19T07:09:32;5.60;;;1.80;;
52534;SDS011;38443;53.164;5.802;2023-09-19T07:11:57;5.15;;;1.80;;
52534;SDS011;38443;53.164;5.802;2023-09-19T07:14:23;7.13;;;2.28;;
52534;SDS011;38443;53.164;5.802;2023-09-19T07:16:48;10.02;;;2.78;;
52534;SDS011;38443;53.164;5.802;2023-09-19T07:19:14;5.45;;;1.80;;
52534;SDS011;38443;53.164;5.802;2023-09-19T07:21:42;3.75;;;1.63;;
52534;SDS011;38443;53.164;5.802;2023-09-19T07:24:08;5.00;;;2.78;;
52534;SDS011;38443;53.164;5.802;2023-09-19T07:26:33;6.85;;;1.88;;
52534;SDS011;38443;53.164;5.802;2023-09-19T07:28:59;8.63;;;1.98;;
52534;SDS011;38443;53.164;5.802;2023-09-19T07:31:27;9.10;;;2.42;;
52534;SDS011;38443;53.164;5.802;2023-09-19T07:33:53;8.55;;;2.30;;
52534;SDS011;38443;53.164;5.802;2023-09-19T07:36:19;7.80;;;2.30;;
52534;SDS011;38443;53.164;5.802;2023-09-19T07:38:45;7.85;;;2.17;;
52534;SDS011;38443;53.164;5.802;2023-09-19T07:41:10;4.75;;;1.80;;
52534;SDS011;38443;53.164;5.802;2023-09-19T07:43:35;4.60;;;2.58;;
52534;SDS011;38443;53.164;5.802;2023-09-19T07:46:04;5.85;;;1.92;;
52534;SDS011;38443;53.164;5.802;2023-09-19T07:48:32;6.75;;;2.17;;
52534;SDS011;38443;53.164;5.802;2023-09-19T07:51:01;7.15;;;2.30;;
52534;SDS011;38443;53.164;5.802;2023-09-19T07:53:27;5.88;;;3.05;;
52534;SDS011;38443;53.164;5.802;2023-09-19T07:56:01;7.57;;;2.00;;
52534;SDS011;38443;53.164;5.802;2023-09-19T07:58:27;8.77;;;2.15;;
52534;SDS011;38443;53.164;5.802;2023-09-19T08:00:52;6.57;;;1.90;;
52534;SDS011;38443;53.164;5.802;2023-09-19T08:03:17;8.32;;;2.03;;
52534;SDS011;38443;53.164;5.802;2023-09-19T08:05:43;4.72;;;1.80;;
52534;SDS011;38443;53.164;5.802;2023-09-19T08:08:10;5.07;;;2.13;;
52534;SDS011;38443;53.164;5.802;2023-09-19T08:10:38;5.25;;;2.00;;
52534;SDS011;38443;53.164;5.802;2023-09-19T08:13:07;9.85;;;2.33;;
52534;SDS011;38443;53.164;5.802;2023-09-19T08:15:36;6.07;;;1.90;;
52534;SDS011;38443;53.164;5.802;2023-09-19T08:18:08;11.77;;;4.93;;
52534;SDS011;38443;53.164;5.802;2023-09-19T08:20:35;8.20;;;3.70;;
52534;SDS011;38443;53.164;5.802;2023-09-19T08:23:03;6.53;;;2.50;;
52534;SDS011;38443;53.164;5.802;2023-09-19T08:25:28;7.85;;;2.45;;
52534;SDS011;38443;53.164;5.802;2023-09-19T08:27:54;4.00;;;1.90;;
52534;SDS011;38443;53.164;5.802;2023-09-19T08:30:23;5.35;;;1.83;;
52534;SDS011;38443;53.164;5.802;2023-09-19T08:32:49;6.93;;;2.20;;
52534;SDS011;38443;53.164;5.802;2023-09-19T08:35:23;8.32;;;2.30;;
52534;SDS011;38443;53.164;5.802;2023-09-19T08:37:48;4.13;;;1.77;;
52534;SDS011;38443;53.164;5.802;2023-09-19T08:40:14;8.60;;;2.10;;
52534;SDS011;38443;53.164;5.802;2023-09-19T08:42:49;8.05;;;2.53;;
52534;SDS011;38443;53.164;5.802;2023-09-19T08:45:15;9.75;;;3.33;;
52534;SDS011;38443;53.164;5.802;2023-09-19T08:47:45;5.10;;;2.00;;
52534;SDS011;38443;53.164;5.802;2023-09-19T08:50:26;7.05;;;2.20;;
52534;SDS011;38443;53.164;5.802;2023-09-19T08:52:56;5.55;;;2.13;;
52534;SDS011;38443;53.164;5.802;2023-09-19T08:55:28;6.30;;;2.65;;
52534;SDS011;38443;53.164;5.802;2023-09-19T08:58:01;7.35;;;2.35;;
52534;SDS011;38443;53.164;5.802;2023-09-19T09:00:29;5.47;;;2.13;;
52534;SDS011;38443;53.164;5.802;2023-09-19T09:02:56;6.80;;;2.10;;
52534;SDS011;38443;53.164;5.802;2023-09-19T09:05:23;5.32;;;2.40;;
52534;SDS011;38443;53.164;5.802;2023-09-19T09:07:49;7.65;;;2.47;;
52534;SDS011;38443;53.164;5.802;2023-09-19T09:10:19;7.15;;;2.13;;
52534;SDS011;38443;53.164;5.802;2023-09-19T09:12:49;8.43;;;2.97;;
52534;SDS011;38443;53.164;5.802;2023-09-19T09:15:17;8.35;;;2.30;;
52534;SDS011;38443;53.164;5.802;2023-09-19T09:17:52;7.18;;;2.20;;
52534;SDS011;38443;53.164;5.802;2023-09-19T09:20:18;6.75;;;2.80;;
52534;SDS011;38443;53.164;5.802;2023-09-19T09:22:51;4.85;;;2.30;;
52534;SDS011;38443;53.164;5.802;2023-09-19T09:25:19;7.38;;;1.90;;
52534;SDS011;38443;53.164;5.802;2023-09-19T09:27:58;5.18;;;1.90;;
52534;SDS011;38443;53.164;5.802;2023-09-19T09:30:32;7.05;;;2.47;;
52534;SDS011;38443;53.164;5.802;2023-09-19T09:35:35;8.00;;;2.60;;
52534;SDS011;38443;53.164;5.802;2023-09-19T09:38:01;8.77;;;2.67;;
52534;SDS011;38443;53.164;5.802;2023-09-19T09:40:45;6.78;;;2.38;;
52534;SDS011;38443;53.164;5.802;2023-09-19T09:43:25;5.28;;;2.35;;
52534;SDS011;38443;53.164;5.802;2023-09-19T09:46:11;4.68;;;2.10;;
52534;SDS011;38443;53.164;5.802;2023-09-19T09:48:47;7.18;;;2.78;;
52534;SDS011;38443;53.164;5.802;2023-09-19T09:51:41;8.02;;;2.92;;
52534;SDS011;38443;53.164;5.802;2023-09-19T09:54:25;9.20;;;2.58;;
52534;SDS011;38443;53.164;5.802;2023-09-19T09:56:58;10.55;;;2.45;;
52534;SDS011;38443;53.164;5.802;2023-09-19T09:59:45;7.95;;;2.40;;
52534;SDS011;38443;53.164;5.802;2023-09-19T10:02:45;6.00;;;2.30;;
52534;SDS011;38443;53.164;5.802;2023-09-19T10:05:16;4.90;;;2.15;;
52534;SDS011;38443;53.164;5.802;2023-09-19T10:07:45;8.33;;;2.40;;
52534;SDS011;38443;53.164;5.802;2023-09-19T10:10:37;8.43;;;2.50;;
52534;SDS011;38443;53.164;5.802;2023-09-19T10:13:09;9.45;;;2.25;;
52534;SDS011;38443;53.164;5.802;2023-09-19T10:15:42;9.70;;;2.97;;
52534;SDS011;38443;53.164;5.802;2023-09-19T10:18:15;6.65;;;2.15;;
52534;SDS011;38443;53.164;5.802;2023-09-19T10:20:45;10.13;;;2.75;;
52534;SDS011;38443;53.164;5.802;2023-09-19T10:23:13;6.60;;;2.55;;
52534;SDS011;38443;53.164;5.802;2023-09-19T10:25:39;8.48;;;2.92;;
52534;SDS011;38443;53.164;5.802;2023-09-19T10:28:09;10.85;;;2.50;;
52534;SDS011;38443;53.164;5.802;2023-09-19T10:30:45;6.82;;;2.58;;
52534;SDS011;38443;53.164;5.802;2023-09-19T10:33:22;8.25;;;2.90;;
52534;SDS011;38443;53.164;5.802;2023-09-19T10:35:51;7.25;;;2.15;;
52534;SDS011;38443;53.164;5.802;2023-09-19T10:38:19;7.82;;;2.72;;
52534;SDS011;38443;53.164;5.802;2023-09-19T10:40:52;8.30;;;2.25;;
52534;SDS011;38443;53.164;5.802;2023-09-19T10:43:19;9.30;;;2.65;;
52534;SDS011;38443;53.164;5.802;2023-09-19T10:45:46;9.63;;;3.08;;
52534;SDS011;38443;53.164;5.802;2023-09-19T10:48:15;7.78;;;2.95;;
52534;SDS011;38443;53.164;5.802;2023-09-19T10:53:42;6.10;;;2.20;;
52534;SDS011;38443;53.164;5.802;2023-09-19T10:56:15;6.22;;;2.97;;
52534;SDS011;38443;53.164;5.802;2023-09-19T10:58:52;8.95;;;3.22;;
52534;SDS011;38443;53.164;5.802;2023-09-19T11:09:47;6.78;;;2.67;;
52534;SDS011;38443;53.164;5.802;2023-09-19T11:14:51;8.27;;;2.95;;
52534;SDS011;38443;53.164;5.802;2023-09-19T11:30:47;7.95;;;2.88;;
52534;SDS011;38443;53.164;5.802;2023-09-19T11:33:16;10.27;;;2.60;;
52534;SDS011;38443;53.164;5.802;2023-09-19T11:43:51;9.43;;;3.55;;
52534;SDS011;38443;53.164;5.802;2023-09-19T11:46:32;5.15;;;2.97;;
52534;SDS011;38443;53.164;5.802;2023-09-19T11:49:07;9.65;;;3.30;;
52534;SDS011;38443;53.164;5.802;2023-09-19T11:51:39;8.05;;;3.47;;
52534;SDS011;38443;53.164;5.802;2023-09-19T11:54:10;12.23;;;4.13;;
52534;SDS011;38443;53.164;5.802;2023-09-19T11:56:42;6.35;;;3.20;;
52534;SDS011;38443;53.164;5.802;2023-09-19T11:59:09;8.50;;;3.50;;
52534;SDS011;38443;53.164;5.802;2023-09-19T12:01:34;10.70;;;3.42;;
52534;SDS011;38443;53.164;5.802;2023-09-19T12:04:05;6.47;;;3.58;;
52534;SDS011;38443;53.164;5.802;2023-09-19T12:06:35;9.77;;;3.45;;
52534;SDS011;38443;53.164;5.802;2023-09-19T12:09:03;10.30;;;3.80;;
52534;SDS011;38443;53.164;5.802;2023-09-19T12:11:32;6.53;;;2.92;;
52534;SDS011;38443;53.164;5.802;2023-09-19T12:13:58;6.80;;;4.05;;
52534;SDS011;38443;53.164;5.802;2023-09-19T12:16:25;7.07;;;2.92;;
52534;SDS011;38443;53.164;5.802;2023-09-19T12:18:55;3.90;;;2.80;;
52534;SDS011;38443;53.164;5.802;2023-09-19T12:26:42;5.15;;;3.20;;
52534;SDS011;38443;53.164;5.802;2023-09-19T12:29:17;8.20;;;3.10;;
52534;SDS011;38443;53.164;5.802;2023-09-19T12:31:47;5.75;;;3.00;;
52534;SDS011;38443;53.164;5.802;2023-09-19T12:34:25;8.85;;;2.60;;
52534;SDS011;38443;53.164;5.802;2023-09-19T12:39:37;5.88;;;2.83;;
52534;SDS011;38443;53.164;5.802;2023-09-19T12:42:03;4.28;;;2.65;;
52534;SDS011;38443;53.164;5.802;2023-09-19T12:44:29;6.03;;;2.50;;
52534;SDS011;38443;53.164;5.802;2023-09-19T12:46:55;7.38;;;3.00;;
52534;SDS011;38443;53.164;5.802;2023-09-19T12:49:24;6.53;;;2.95;;
52534;SDS011;38443;53.164;5.802;2023-09-19T12:51:49;6.00;;;2.88;;
52534;SDS011;38443;53.164;5.802;2023-09-19T12:54:19;8.93;;;2.83;;
52534;SDS011;38443;53.164;5.802;2023-09-19T12:56:47;6.30;;;2.15;;
52534;SDS011;38443;53.164;5.802;2023-09-19T12:59:15;4.63;;;2.50;;
52534;SDS011;38443;53.164;5.802;2023-09-19T13:01:41;5.55;;;2.45;;
52534;SDS011;38443;53.164;5.802;2023-09-19T13:04:19;4.68;;;2.22;;
52534;SDS011;38443;53.164;5.802;2023-09-19T13:06:51;7.25;;;2.40;;
52534;SDS011;38443;53.164;5.802;2023-09-19T13:09:17;4.60;;;2.20;;
52534;SDS011;38443;53.164;5.802;2023-09-19T13:11:46;4.75;;;2.15;;
52534;SDS011;38443;53.164;5.802;2023-09-19T13:16:58;6.30;;;2.25;;
52534;SDS011;38443;53.164;5.802;2023-09-19T13:25:04;7.10;;;2.63;;
52534;SDS011;38443;53.164;5.802;2023-09-19T13:27:31;5.28;;;2.53;;
52534;SDS011;38443;53.164;5.802;2023-09-19T13:29:57;5.22;;;2.75;;
52534;SDS011;38443;53.164;5.802;2023-09-19T13:32:23;9.35;;;2.35;;
52534;SDS011;38443;53.164;5.802;2023-09-19T13:34:49;4.30;;;2.60;;
52534;SDS011;38443;53.164;5.802;2023-09-19T13:37:14;8.52;;;2.67;;
52534;SDS011;38443;53.164;5.802;2023-09-19T13:39:41;4.65;;;2.45;;
52534;SDS011;38443;53.164;5.802;2023-09-19T13:42:13;8.32;;;3.67;;
52534;SDS011;38443;53.164;5.802;2023-09-19T13:44:39;5.25;;;2.38;;
52534;SDS011;38443;53.164;5.802;2023-09-19T13:47:06;6.53;;;2.38;;
52534;SDS011;38443;53.164;5.802;2023-09-19T13:49:34;4.80;;;2.72;;
52534;SDS011;38443;53.164;5.802;2023-09-19T13:52:00;7.30;;;2.72;;
52534;SDS011;38443;53.164;5.802;2023-09-19T13:54:28;4.68;;;2.45;;
52534;SDS011;38443;53.164;5.802;2023-09-19T13:56:53;5.97;;;2.53;;
52534;SDS011;38443;53.164;5.802;2023-09-19T13:59:19;5.50;;;2.78;;
52534;SDS011;38443;53.164;5.802;2023-09-19T14:01:48;6.78;;;2.75;;
52534;SDS011;38443;53.164;5.802;2023-09-19T14:04:14;6.25;;;2.97;;
52534;SDS011;38443;53.164;5.802;2023-09-19T14:06:41;4.03;;;2.80;;
52534;SDS011;38443;53.164;5.802;2023-09-19T14:09:07;6.60;;;2.58;;
52534;SDS011;38443;53.164;5.802;2023-09-19T14:11:33;10.63;;;3.20;;
52534;SDS011;38443;53.164;5.802;2023-09-19T14:13:58;7.05;;;3.20;;
52534;SDS011;38443;53.164;5.802;2023-09-19T14:16:25;6.35;;;2.78;;
52534;SDS011;38443;53.164;5.802;2023-09-19T14:18:55;8.63;;;3.85;;
52534;SDS011;38443;53.164;5.802;2023-09-19T14:21:20;6.20;;;2.72;;
52534;SDS011;38443;53.164;5.802;2023-09-19T14:23:45;5.70;;;2.88;;
52534;SDS011;38443;53.164;5.802;2023-09-19T14:26:11;6.70;;;3.35;;
52534;SDS011;38443;53.164;5.802;2023-09-19T14:28:36;7.53;;;3.00;;
52534;SDS011;38443;53.164;5.802;2023-09-19T14:31:05;8.75;;;2.95;;
52534;SDS011;38443;53.164;5.802;2023-09-19T14:33:32;9.07;;;3.10;;
52534;SDS011;38443;53.164;5.802;2023-09-19T14:35:57;11.68;;;2.90;;
52534;SDS011;38443;53.164;5.802;2023-09-19T14:38:22;6.55;;;3.10;;
52534;SDS011;38443;53.164;5.802;2023-09-19T14:40:48;7.18;;;3.42;;
52534;SDS011;38443;53.164;5.802;2023-09-19T14:43:15;7.95;;;3.60;;
52534;SDS011;38443;53.164;5.802;2023-09-19T14:45:40;6.45;;;3.35;;
52534;SDS011;38443;53.164;5.802;2023-09-19T14:48:06;8.52;;;3.42;;
52534;SDS011;38443;53.164;5.802;2023-09-19T14:50:32;9.15;;;3.63;;
52534;SDS011;38443;53.164;5.802;2023-09-19T14:52:58;7.30;;;2.92;;
52534;SDS011;38443;53.164;5.802;2023-09-19T14:55:26;16.70;;;3.35;;
52534;SDS011;38443;53.164;5.802;2023-09-19T14:57:54;9.48;;;3.53;;
52534;SDS011;38443;53.164;5.802;2023-09-19T15:00:21;9.93;;;2.90;;
52534;SDS011;38443;53.164;5.802;2023-09-19T15:02:48;7.28;;;3.22;;
52534;SDS011;38443;53.164;5.802;2023-09-19T15:05:15;11.07;;;3.10;;
52534;SDS011;38443;53.164;5.802;2023-09-19T15:07:41;5.47;;;2.92;;
52534;SDS011;38443;53.164;5.802;2023-09-19T15:10:06;9.90;;;2.97;;
52534;SDS011;38443;53.164;5.802;2023-09-19T15:12:34;8.93;;;2.80;;
52534;SDS011;38443;53.164;5.802;2023-09-19T15:15:02;10.77;;;3.55;;
52534;SDS011;38443;53.164;5.802;2023-09-19T15:17:30;10.10;;;3.58;;
52534;SDS011;38443;53.164;5.802;2023-09-19T15:19:55;7.85;;;3.72;;
52534;SDS011;38443;53.164;5.802;2023-09-19T15:22:21;10.73;;;3.00;;
52534;SDS011;38443;53.164;5.802;2023-09-19T15:24:47;9.05;;;3.53;;
52534;SDS011;38443;53.164;5.802;2023-09-19T15:27:12;11.52;;;3.38;;
52534;SDS011;38443;53.164;5.802;2023-09-19T15:29:38;15.07;;;4.47;;
52534;SDS011;38443;53.164;5.802;2023-09-19T15:32:04;14.15;;;4.72;;
52534;SDS011;38443;53.164;5.802;2023-09-19T15:34:29;19.17;;;4.05;;
52534;SDS011;38443;53.164;5.802;2023-09-19T15:36:55;15.45;;;3.80;;
52534;SDS011;38443;53.164;5.802;2023-09-19T15:39:21;12.57;;;3.40;;
52534;SDS011;38443;53.164;5.802;2023-09-19T15:41:47;11.85;;;3.38;;
52534;SDS011;38443;53.164;5.802;2023-09-19T15:44:17;8.65;;;3.00;;
52534;SDS011;38443;53.164;5.802;2023-09-19T15:46:44;9.93;;;3.25;;
52534;SDS011;38443;53.164;5.802;2023-09-19T15:49:09;8.70;;;2.92;;
52534;SDS011;38443;53.164;5.802;2023-09-19T15:51:35;6.45;;;3.25;;
52534;SDS011;38443;53.164;5.802;2023-09-19T15:54:01;8.00;;;3.28;;
52534;SDS011;38443;53.164;5.802;2023-09-19T15:56:33;7.35;;;3.08;;
52534;SDS011;38443;53.164;5.802;2023-09-19T15:58:59;11.10;;;3.35;;
52534;SDS011;38443;53.164;5.802;2023-09-19T16:01:25;8.20;;;3.15;;
52534;SDS011;38443;53.164;5.802;2023-09-19T16:03:51;13.18;;;3.40;;